Time;durP1;ratioP1;P1;durP2;ratioP2;P2;SDS_P1;SDS_P2;PMS_P1;PMS_P2;Temp;Humidity;BMP_temperature;BMP_pressure;BME280_temperature;BME280_humidity;BME280_pressure;Samples;Min_cycle;Max_cycle;Signal;HPM_P1;HPM_P2
2022/04/08 00:05:46;;;;;;;1.70;0.80;;;;;;;7.42;63.39;96668.51;439678;1270;269504;-59
2022/04/08 00:15:52;;;;;;;3.60;1.60;;;;;;;7.29;63.33;96687.85;446576;1270;142673;-58
2022/04/08 00:25:58;;;;;;;1.20;0.50;;;;;;;7.08;63.11;96687.89;447276;1270;141406;-58
2022/04/08 00:36:04;;;;;;;1.70;0.90;;;;;;;7.00;62.76;96702.29;447340;1270;140993;-59
2022/04/08 00:46:11;;;;;;;2.70;1.10;;;;;;;7.02;62.51;96706.55;437385;1269;141016;-57
2022/04/08 00:56:21;;;;;;;0.70;0.50;;;;;;;7.02;62.42;96722.46;440296;1270;141400;-57
2022/04/08 01:06:27;;;;;;;2.20;0.70;;;;;;;7.01;62.27;96733.80;447584;1270;141626;-58
2022/04/08 01:16:33;;;;;;;1.50;1.10;;;;;;;7.00;62.46;96741.03;446970;1269;141764;-58
2022/04/08 01:26:40;;;;;;;1.90;1.10;;;;;;;7.00;62.64;96751.66;447681;1269;141814;-60
2022/04/08 01:36:46;;;;;;;2.40;1.10;;;;;;;6.94;62.57;96748.20;446921;1269;143087;-59
2022/04/08 01:46:52;;;;;;;2.40;1.10;;;;;;;6.74;62.59;96758.56;436433;1270;141094;-58
2022/04/08 01:56:58;;;;;;;1.50;0.80;;;;;;;6.64;62.83;96761.78;432113;1270;140969;-57
2022/04/08 02:07:06;;;;;;;3.30;1.30;;;;;;;6.47;62.91;96761.59;440799;1269;141564;-58
2022/04/08 02:17:12;;;;;;;1.00;0.70;;;;;;;6.49;63.10;96778.97;436701;1270;142437;-58
2022/04/08 02:27:19;;;;;;;2.20;0.60;;;;;;;6.56;63.07;96785.21;447602;1269;141770;-59
2022/04/08 02:37:25;;;;;;;2.90;1.00;;;;;;;6.50;63.05;96791.19;438908;1269;142664;-57
2022/04/08 02:47:31;;;;;;;1.10;0.90;;;;;;;6.32;63.43;96802.70;447539;1269;142042;-57
2022/04/08 02:57:45;;;;;;;1.80;1.00;;;;;;;6.26;63.75;96807.47;446849;1268;141825;-59
2022/04/08 03:07:51;;;;;;;1.40;0.30;;;;;;;6.29;63.27;96805.95;447663;1268;141656;-60
2022/04/08 03:17:57;;;;;;;2.40;0.50;;;;;;;6.35;62.66;96813.60;440308;1270;142002;-58
2022/04/08 03:28:03;;;;;;;3.30;0.50;;;;;;;6.39;61.91;96813.00;446916;1269;141774;-58
2022/04/08 03:38:09;;;;;;;1.60;0.60;;;;;;;6.42;61.40;96811.71;447509;1269;181447;-57
2022/04/08 03:48:15;;;;;;;4.10;0.80;;;;;;;6.47;61.10;96833.52;447660;1269;142689;-58
2022/04/08 03:58:21;;;;;;;5.00;1.00;;;;;;;6.45;61.09;96837.85;446768;1269;142265;-58
2022/04/08 04:08:27;;;;;;;4.20;1.80;;;;;;;6.41;61.21;96857.34;447346;1270;141603;-58
2022/04/08 04:18:33;;;;;;;1.90;0.70;;;;;;;6.35;61.17;96868.34;447476;1269;142011;-58
2022/04/08 04:28:39;;;;;;;2.10;1.00;;;;;;;6.30;61.09;96889.94;447359;1269;141381;-59
2022/04/08 04:38:45;;;;;;;4.40;1.00;;;;;;;6.30;60.98;96897.22;447484;1269;140974;-58
2022/04/08 04:48:51;;;;;;;4.90;1.90;;;;;;;6.34;60.97;96909.59;446766;1269;141710;-59
2022/04/08 04:58:57;;;;;;;2.80;0.90;;;;;;;6.60;60.69;96930.20;447546;1269;142026;-58
2022/04/08 05:09:05;;;;;;;1.80;1.10;;;;;;;6.63;60.12;96943.32;447285;1270;142278;-58
2022/04/08 05:19:11;;;;;;;2.30;0.90;;;;;;;6.63;59.72;96948.59;446703;1267;143199;-58
2022/04/08 05:29:17;;;;;;;2.20;0.70;;;;;;;6.63;59.49;96964.43;445691;1267;141196;-58
2022/04/08 05:39:23;;;;;;;4.00;0.90;;;;;;;6.65;59.37;96987.14;440810;1269;140347;-57
2022/04/08 05:49:29;;;;;;;1.60;0.60;;;;;;;6.60;59.99;97010.48;446989;1269;140828;-58
2022/04/08 05:59:37;;;;;;;3.40;0.70;;;;;;;6.61;60.14;97039.99;447776;1269;140167;-58
2022/04/08 06:09:48;;;;;;;2.70;1.20;;;;;;;6.32;62.30;97087.48;447016;1269;140996;-58
2022/04/08 06:19:59;;;;;;;2.90;1.00;;;;;;;6.34;63.43;97097.77;447840;1269;141540;-58
2022/04/08 06:30:09;;;;;;;2.00;0.80;;;;;;;6.95;63.24;97103.25;447449;1270;141556;-58
2022/04/08 06:40:15;;;;;;;1.00;0.60;;;;;;;8.44;60.94;97110.73;447023;1269;142981;-59
2022/04/08 06:50:21;;;;;;;2.00;0.60;;;;;;;9.73;58.33;97124.17;447672;1268;143013;-59
2022/04/08 07:00:27;;;;;;;1.30;0.80;;;;;;;9.50;57.54;97144.31;447596;1269;140693;-60
2022/04/08 07:10:34;;;;;;;2.40;0.90;;;;;;;10.05;56.23;97156.89;446913;1269;141279;-58
2022/04/08 07:20:41;;;;;;;1.10;0.60;;;;;;;11.28;53.93;97162.20;447667;1269;141625;-62
2022/04/08 07:30:48;;;;;;;1.20;0.80;;;;;;;9.91;53.98;97177.63;446928;1269;141473;-60
2022/04/08 07:40:53;;;;;;;1.20;0.70;;;;;;;9.63;54.50;97198.83;447626;1269;142267;-61
2022/04/08 07:50:59;;;;;;;4.10;0.70;;;;;;;10.87;52.16;97209.80;447740;1269;141423;-69
2022/04/08 08:01:06;;;;;;;0.80;0.80;;;;;;;9.02;53.46;97239.34;439813;1268;141328;-61
2022/04/08 08:11:13;;;;;;;2.00;1.50;;;;;;;8.34;54.75;97252.92;447713;1270;142100;-61
2022/04/08 08:21:32;;;;;;;1.50;0.90;;;;;;;8.07;55.91;97266.73;447811;1269;140324;-63
2022/04/08 08:31:38;;;;;;;1.30;0.70;;;;;;;7.99;57.08;97295.30;438589;1270;142215;-62
2022/04/08 08:41:52;;;;;;;1.10;0.80;;;;;;;7.78;57.86;97312.27;430870;1270;140846;-61
2022/04/08 08:52:01;;;;;;;1.70;0.70;;;;;;;8.35;58.29;97311.17;446855;1270;142156;-59
2022/04/08 09:02:08;;;;;;;0.30;0.30;;;;;;;10.32;55.89;97321.55;447733;1269;140941;-64
2022/04/08 09:12:16;;;;;;;2.00;0.80;;;;;;;9.21;56.53;97349.64;447500;1269;141470;-63
2022/04/08 09:22:25;;;;;;;1.40;1.00;;;;;;;8.84;58.00;97361.61;446832;1268;141668;-62
2022/04/08 09:32:31;;;;;;;1.90;1.10;;;;;;;9.38;58.30;97368.38;447828;1269;140458;-61
2022/04/08 09:42:44;;;;;;;2.60;1.00;;;;;;;10.33;56.51;97366.70;447059;1270;141145;-61
2022/04/08 09:52:51;;;;;;;1.00;0.60;;;;;;;10.99;54.59;97387.20;446660;1270;141427;-58
2022/04/08 10:03:00;;;;;;;0.90;0.80;;;;;;;11.41;53.49;97377.55;442492;1270;141099;-58
2022/04/08 10:13:22;;;;;;;4.50;1.90;;;;;;;11.42;53.73;97373.77;446958;1270;141128;-59
2022/04/08 10:23:38;;;;;;;0.50;0.30;;;;;;;11.48;52.88;97429.63;447787;1269;141577;-59
2022/04/08 10:33:50;;;;;;;0.50;0.30;;;;;;;8.81;54.84;97502.41;446970;1270;141672;-60
2022/04/08 10:43:56;;;;;;;1.50;0.30;;;;;;;7.07;58.74;97526.02;447858;1270;141454;-58
2022/04/08 10:54:06;;;;;;;0.80;0.80;;;;;;;6.60;60.55;97537.25;445448;1269;140624;-59
2022/04/08 11:04:12;;;;;;;1.20;0.80;;;;;;;7.10;62.26;97528.67;432962;1270;142363;-60
2022/04/08 11:14:19;;;;;;;1.50;0.70;;;;;;;7.83;62.42;97547.55;443732;1269;142122;-58
2022/04/08 11:24:25;;;;;;;0.90;0.70;;;;;;;8.33;62.71;97552.29;447611;1270;141390;-59
2022/04/08 11:34:31;;;;;;;1.20;0.70;;;;;;;8.40;62.29;97555.70;446578;1269;141760;-58
2022/04/08 11:44:38;;;;;;;1.60;0.50;;;;;;;8.97;61.22;97537.81;442428;1270;142273;-59
2022/04/08 11:54:52;;;;;;;2.40;1.90;;;;;;;8.34;62.23;97536.39;433634;1310;600484;-61
2022/04/08 12:05:25;;;;;;;1.40;1.30;;;;;;;8.19;62.92;97527.60;444415;1280;249342;-60
2022/04/08 12:15:44;;;;;;;1.60;1.10;;;;;;;8.68;62.91;97525.92;443747;1280;141132;-59
2022/04/08 12:25:53;;;;;;;3.50;1.20;;;;;;;9.61;61.28;97510.09;444453;1281;142154;-58
2022/04/08 12:36:00;;;;;;;1.10;1.00;;;;;;;9.85;60.14;97499.27;444359;1280;141265;-60
2022/04/08 12:46:06;;;;;;;1.50;0.90;;;;;;;10.28;59.28;97493.45;443647;1280;143166;-59
2022/04/08 12:56:12;;;;;;;1.60;0.80;;;;;;;10.60;57.23;97493.02;447741;1270;140816;-60
2022/04/08 13:06:19;;;;;;;1.40;0.80;;;;;;;10.72;54.06;97493.46;447625;1270;141892;-60
2022/04/08 13:16:24;;;;;;;0.60;0.40;;;;;;;10.42;52.65;97529.00;446978;1270;190813;-58
2022/04/08 13:26:31;;;;;;;1.40;0.80;;;;;;;8.17;58.17;97557.14;433761;1270;139852;-61
2022/04/08 13:36:37;;;;;;;0.70;0.70;;;;;;;7.89;59.40;97555.54;430843;1270;161679;-60
2022/04/08 13:46:43;;;;;;;1.50;0.70;;;;;;;7.93;59.07;97545.66;447647;1270;142695;-61
2022/04/08 13:56:52;;;;;;;0.60;0.60;;;;;;;8.12;58.57;97547.88;447506;1270;143221;-60
2022/04/08 14:07:01;;;;;;;2.30;0.60;;;;;;;8.26;57.83;97560.63;446760;1270;143567;-58
2022/04/08 14:17:08;;;;;;;2.20;0.40;;;;;;;8.09;55.51;97548.09;447679;1270;142978;-64
2022/04/08 14:27:14;;;;;;;0.50;0.50;;;;;;;8.05;55.52;97543.94;445517;1270;140425;-69
2022/04/08 14:37:20;;;;;;;1.70;0.80;;;;;;;8.29;55.47;97541.35;446746;1270;141599;-66
2022/04/08 14:47:27;;;;;;;5.10;0.70;;;;;;;8.51;54.59;97543.34;447739;1268;141298;-68
2022/04/08 14:57:33;;;;;;;2.50;0.70;;;;;;;8.56;53.16;97552.25;447740;1270;142922;-63
2022/04/08 15:07:39;;;;;;;4.30;0.80;;;;;;;8.50;51.91;97552.42;447704;1270;141853;-62
2022/04/08 15:17:45;;;;;;;2.60;0.70;;;;;;;8.42;50.85;97562.70;447619;1270;139799;-63
2022/04/08 15:27:50;;;;;;;1.00;0.40;;;;;;;8.39;49.79;97562.79;446931;1270;142097;-67
2022/04/08 15:37:56;;;;;;;2.20;0.90;;;;;;;8.11;48.84;97558.56;447785;1271;141091;-66
2022/04/08 15:48:02;;;;;;;7.40;1.60;;;;;;;8.05;49.29;97569.58;433365;1270;143540;-65
2022/04/08 15:58:08;;;;;;;3.80;1.40;;;;;;;7.78;50.07;97562.55;437512;1270;139682;-65
2022/04/08 16:08:14;;;;;;;2.30;1.30;;;;;;;7.43;50.95;97559.43;438678;1271;139831;-66
2022/04/08 16:18:20;;;;;;;4.90;1.60;;;;;;;7.29;51.73;97556.24;447918;1269;141169;-68
2022/04/08 16:28:27;;;;;;;3.50;1.80;;;;;;;7.18;52.45;97562.30;447253;1269;140114;-69
2022/04/08 16:38:33;;;;;;;6.30;2.10;;;;;;;7.07;53.04;97582.16;435759;1271;140637;-68
2022/04/08 16:48:38;;;;;;;6.40;3.80;;;;;;;7.02;53.64;97581.34;431138;1271;151399;-69
2022/04/08 16:58:44;;;;;;;19.80;8.70;;;;;;;6.82;54.19;97577.77;438813;1268;141679;-67
2022/04/08 17:08:51;;;;;;;10.40;5.20;;;;;;;6.74;54.74;97580.29;446934;1268;140311;-67
2022/04/08 17:18:57;;;;;;;18.70;9.50;;;;;;;6.54;55.17;97571.97;441143;1268;141113;-69
2022/04/08 17:29:03;;;;;;;13.40;7.90;;;;;;;6.31;55.71;97560.95;447840;1268;142271;-63
2022/04/08 17:39:11;;;;;;;28.80;14.00;;;;;;;6.14;56.46;97566.63;447764;1266;140999;-63
2022/04/08 17:49:17;;;;;;;20.60;11.30;;;;;;;6.04;56.84;97558.35;440319;1268;141154;-61
2022/04/08 17:59:23;;;;;;;22.80;13.20;;;;;;;5.96;57.17;97558.73;447779;1268;143315;-62
2022/04/08 18:09:29;;;;;;;25.00;13.80;;;;;;;5.90;57.48;97545.27;447897;1268;143713;-63
2022/04/08 18:19:35;;;;;;;17.60;10.80;;;;;;;5.86;58.12;97547.17;447972;1268;140535;-63
2022/04/08 18:29:42;;;;;;;20.60;9.10;;;;;;;5.79;58.25;97547.73;447962;1269;140089;-64
2022/04/08 18:40:10;;;;;;;58.10;32.10;;;;;;;5.72;59.00;97557.73;447218;1269;141580;-63
2022/04/08 18:50:16;;;;;;;40.10;25.90;;;;;;;5.76;58.93;97558.90;440273;1268;141197;-62
2022/04/08 19:00:22;;;;;;;50.90;31.50;;;;;;;5.79;59.02;97546.45;445511;1269;140883;-63
2022/04/08 19:10:28;;;;;;;37.60;20.60;;;;;;;5.80;58.63;97535.84;447199;1268;142065;-65
2022/04/08 19:20:34;;;;;;;15.40;11.80;;;;;;;5.78;58.50;97514.30;445239;1268;142079;-62
2022/04/08 19:30:40;;;;;;;15.10;10.70;;;;;;;5.70;58.41;97511.70;443088;1269;142938;-63
2022/04/08 19:40:46;;;;;;;17.80;11.00;;;;;;;5.68;58.45;97503.55;447919;1268;140656;-63
2022/04/08 19:50:52;;;;;;;19.90;12.60;;;;;;;5.71;58.88;97501.26;447903;1269;139974;-64
2022/04/08 20:00:58;;;;;;;14.60;9.60;;;;;;;5.73;59.56;97499.02;447196;1269;141044;-63
2022/04/08 20:11:05;;;;;;;13.30;9.60;;;;;;;5.67;60.01;97473.06;447793;1268;140327;-63
2022/04/08 20:21:11;;;;;;;16.90;9.20;;;;;;;5.65;60.12;97457.12;447714;1268;140535;-63
2022/04/08 20:31:17;;;;;;;14.60;8.20;;;;;;;5.69;60.57;97454.50;446990;1269;141062;-64
2022/04/08 20:41:24;;;;;;;13.30;7.60;;;;;;;5.79;60.91;97448.36;447890;1269;142477;-63
2022/04/08 20:51:30;;;;;;;9.80;6.80;;;;;;;5.85;61.51;97448.64;442541;1268;141257;-64
2022/04/08 21:01:36;;;;;;;5.70;4.50;;;;;;;5.86;61.79;97448.50;447745;1268;141038;-62
2022/04/08 21:11:42;;;;;;;8.00;4.80;;;;;;;5.85;61.97;97427.61;447895;1267;141599;-62
2022/04/08 21:21:48;;;;;;;13.60;7.20;;;;;;;5.82;62.22;97419.85;446741;1270;141134;-62
2022/04/08 21:31:55;;;;;;;7.60;4.60;;;;;;;5.79;62.43;97418.38;447933;1268;141245;-63
2022/04/08 21:42:00;;;;;;;8.90;4.60;;;;;;;5.77;62.57;97411.38;447910;1268;141624;-63
2022/04/08 21:52:07;;;;;;;9.50;5.50;;;;;;;5.74;62.91;97423.91;447225;1268;142287;-63
2022/04/08 22:02:13;;;;;;;8.90;3.70;;;;;;;5.68;62.98;97416.79;444543;1268;185780;-63
2022/04/08 22:12:19;;;;;;;4.50;3.10;;;;;;;5.62;63.46;97422.27;430861;1268;143001;-63
2022/04/08 22:22:25;;;;;;;4.60;3.30;;;;;;;5.55;63.92;97438.91;433780;1268;142161;-62
2022/04/08 22:32:31;;;;;;;7.50;5.30;;;;;;;5.48;64.46;97435.48;438274;1268;141674;-63
2022/04/08 22:42:38;;;;;;;4.60;3.50;;;;;;;5.41;65.03;97418.70;433462;1268;162045;-62
2022/04/08 22:52:45;;;;;;;4.00;3.60;;;;;;;5.30;65.44;97404.59;447818;1268;141581;-62
2022/04/08 23:02:51;;;;;;;8.80;4.80;;;;;;;5.18;65.90;97399.98;447856;1268;140653;-62
2022/04/08 23:12:57;;;;;;;7.40;4.90;;;;;;;5.15;66.27;97407.83;439331;1268;163473;-63
2022/04/08 23:23:03;;;;;;;6.90;5.00;;;;;;;5.13;66.62;97417.16;444586;1268;143874;-62
2022/04/08 23:33:09;;;;;;;12.40;8.40;;;;;;;5.22;66.53;97405.08;433613;1268;140994;-62
2022/04/08 23:43:15;;;;;;;8.50;6.50;;;;;;;5.20;67.09;97378.47;447113;1268;142799;-62
2022/04/08 23:53:21;;;;;;;8.60;6.70;;;;;;;5.12;67.17;97362.98;447913;1268;141917;-62
